sensor_id;sensor_type;location;lat;lon;timestamp;pressure;altitude;pressure_sealevel;temperature;humidity
77325;BME280;66387;53.440;10.390;2024-03-23T00:55:35;100134.28;;;6.63;100.00
77325;BME280;66387;53.440;10.390;2024-03-23T00:58:01;100123.97;;;6.66;100.00
77325;BME280;66387;53.440;10.390;2024-03-23T01:00:26;100130.00;;;6.61;100.00
77325;BME280;66387;53.440;10.390;2024-03-23T01:02:51;100126.59;;;6.56;100.00
77325;BME280;66387;53.440;10.390;2024-03-23T01:05:16;100118.00;;;6.52;100.00
77325;BME280;66387;53.440;10.390;2024-03-23T01:07:42;100112.84;;;6.54;100.00
77325;BME280;66387;53.440;10.390;2024-03-23T01:10:07;100100.81;;;6.50;100.00
77325;BME280;66387;53.440;10.390;2024-03-23T01:12:32;100111.97;;;6.53;100.00
77325;BME280;66387;53.440;10.390;2024-03-23T01:14:58;100110.25;;;6.52;100.00
77325;BME280;66387;53.440;10.390;2024-03-23T01:17:23;100109.44;;;6.50;100.00
77325;BME280;66387;53.440;10.390;2024-03-23T01:19:48;100102.56;;;6.51;100.00
77325;BME280;66387;53.440;10.390;2024-03-23T01:22:13;100101.69;;;6.55;100.00
77325;BME280;66387;53.440;10.390;2024-03-23T01:24:39;100110.31;;;6.48;100.00
77325;BME280;66387;53.440;10.390;2024-03-23T01:27:04;100100.81;;;6.50;100.00
77325;BME280;66387;53.440;10.390;2024-03-23T01:29:29;100097.41;;;6.48;100.00
77325;BME280;66387;53.440;10.390;2024-03-23T01:31:55;100094.84;;;6.45;100.00
77325;BME280;66387;53.440;10.390;2024-03-23T01:34:20;100085.41;;;6.37;100.00
77325;BME280;66387;53.440;10.390;2024-03-23T01:36:46;100087.97;;;6.37;100.00
77325;BME280;66387;53.440;10.390;2024-03-23T01:39:12;100080.28;;;6.34;100.00
77325;BME280;66387;53.440;10.390;2024-03-23T01:41:37;100074.28;;;6.32;100.00
77325;BME280;66387;53.440;10.390;2024-03-23T01:44:05;100073.41;;;6.30;100.00
77325;BME280;66387;53.440;10.390;2024-03-23T01:46:32;100072.53;;;6.34;100.00
77325;BME280;66387;53.440;10.390;2024-03-23T01:48:57;100062.22;;;6.37;100.00
77325;BME280;66387;53.440;10.390;2024-03-23T01:51:23;100063.97;;;6.32;100.00
77325;BME280;66387;53.440;10.390;2024-03-23T01:53:48;100056.22;;;6.35;100.00
77325;BME280;66387;53.440;10.390;2024-03-23T01:56:14;100039.00;;;6.37;100.00
77325;BME280;66387;53.440;10.390;2024-03-23T01:58:39;100045.03;;;6.35;100.00
77325;BME280;66387;53.440;10.390;2024-03-23T02:01:04;100045.91;;;6.34;100.00
77325;BME280;66387;53.440;10.390;2024-03-23T02:03:30;100039.13;;;6.22;100.00
77325;BME280;66387;53.440;10.390;2024-03-23T02:05:55;100036.53;;;6.21;100.00
77325;BME280;66387;53.440;10.390;2024-03-23T02:08:22;100034.84;;;6.18;100.00
77325;BME280;66387;53.440;10.390;2024-03-23T02:10:51;100027.94;;;6.22;100.00
77325;BME280;66387;53.440;10.390;2024-03-23T02:13:18;100021.09;;;6.16;100.00
77325;BME280;66387;53.440;10.390;2024-03-23T02:15:43;100023.66;;;6.22;100.00
77325;BME280;66387;53.440;10.390;2024-03-23T02:18:10;100018.47;;;6.19;100.00
77325;BME280;66387;53.440;10.390;2024-03-23T02:20:36;100011.63;;;6.21;100.00
77325;BME280;66387;53.440;10.390;2024-03-23T02:23:01;100017.63;;;6.22;100.00
77325;BME280;66387;53.440;10.390;2024-03-23T02:25:27;100021.06;;;6.19;100.00
77325;BME280;66387;53.440;10.390;2024-03-23T02:27:52;100020.25;;;6.14;100.00
77325;BME280;66387;53.440;10.390;2024-03-23T02:30:19;100011.66;;;6.14;100.00
77325;BME280;66387;53.440;10.390;2024-03-23T02:32:44;100008.22;;;6.10;100.00
77325;BME280;66387;53.440;10.390;2024-03-23T02:35:09;100009.97;;;6.05;100.00
77325;BME280;66387;53.440;10.390;2024-03-23T02:37:35;100013.41;;;6.01;100.00
77325;BME280;66387;53.440;10.390;2024-03-23T02:40:00;100015.13;;;6.04;100.00
77325;BME280;66387;53.440;10.390;2024-03-23T02:42:25;100014.25;;;6.06;100.00
77325;BME280;66387;53.440;10.390;2024-03-23T02:44:51;100010.84;;;6.07;100.00
77325;BME280;66387;53.440;10.390;2024-03-23T02:47:16;99998.78;;;6.11;100.00
77325;BME280;66387;53.440;10.390;2024-03-23T02:49:41;99996.19;;;6.12;100.00
77325;BME280;66387;53.440;10.390;2024-03-23T02:52:06;99987.66;;;6.04;100.00
77325;BME280;66387;53.440;10.390;2024-03-23T02:54:32;99993.66;;;6.03;100.00
77325;BME280;66387;53.440;10.390;2024-03-23T02:56:57;99986.78;;;6.05;100.00
77325;BME280;66387;53.440;10.390;2024-03-23T02:59:22;99993.66;;;6.06;100.00
77325;BME280;66387;53.440;10.390;2024-03-23T03:01:47;99989.38;;;5.99;100.00
77325;BME280;66387;53.440;10.390;2024-03-23T03:04:13;99990.25;;;6.00;100.00
77325;BME280;66387;53.440;10.390;2024-03-23T03:06:38;99988.56;;;5.96;100.00
77325;BME280;66387;53.440;10.390;2024-03-23T03:09:03;99986.88;;;5.88;100.00
77325;BME280;66387;53.440;10.390;2024-03-23T03:11:29;99975.69;;;5.91;100.00
77325;BME280;66387;53.440;10.390;2024-03-23T03:13:54;99977.41;;;5.89;100.00
77325;BME280;66387;53.440;10.390;2024-03-23T03:16:20;99973.09;;;5.91;100.00
77325;BME280;66387;53.440;10.390;2024-03-23T03:18:45;99968.84;;;5.90;100.00
77325;BME280;66387;53.440;10.390;2024-03-23T03:21:11;99973.97;;;5.93;100.00
77325;BME280;66387;53.440;10.390;2024-03-23T03:23:37;99965.38;;;5.93;100.00
77325;BME280;66387;53.440;10.390;2024-03-23T03:26:03;99967.97;;;5.93;100.00
77325;BME280;66387;53.440;10.390;2024-03-23T03:28:28;99957.66;;;5.93;100.00
77325;BME280;66387;53.440;10.390;2024-03-23T03:30:55;99960.22;;;5.94;100.00
77325;BME280;66387;53.440;10.390;2024-03-23T03:33:21;99960.22;;;5.91;100.00
77325;BME280;66387;53.440;10.390;2024-03-23T03:35:46;99952.53;;;5.89;100.00
77325;BME280;66387;53.440;10.390;2024-03-23T03:38:12;99962.81;;;5.88;100.00
77325;BME280;66387;53.440;10.390;2024-03-23T03:40:37;99950.78;;;5.87;100.00
77325;BME280;66387;53.440;10.390;2024-03-23T03:43:02;99949.94;;;5.88;100.00
77325;BME280;66387;53.440;10.390;2024-03-23T03:45:28;99944.78;;;5.93;100.00
77325;BME280;66387;53.440;10.390;2024-03-23T03:47:53;99937.91;;;5.93;100.00
77325;BME280;66387;53.440;10.390;2024-03-23T03:50:19;99926.78;;;5.89;100.00
77325;BME280;66387;53.440;10.390;2024-03-23T03:52:45;99929.34;;;5.88;100.00
77325;BME280;66387;53.440;10.390;2024-03-23T03:55:14;99926.75;;;5.85;100.00
77325;BME280;66387;53.440;10.390;2024-03-23T03:57:39;99927.63;;;5.87;100.00
77325;BME280;66387;53.440;10.390;2024-03-23T04:00:05;99923.34;;;5.81;100.00
77325;BME280;66387;53.440;10.390;2024-03-23T04:02:31;99921.66;;;5.73;100.00
77325;BME280;66387;53.440;10.390;2024-03-23T04:04:56;99919.06;;;5.73;100.00
77325;BME280;66387;53.440;10.390;2024-03-23T04:07:22;99928.53;;;5.69;100.00
77325;BME280;66387;53.440;10.390;2024-03-23T04:09:48;99922.53;;;5.69;100.00
77325;BME280;66387;53.440;10.390;2024-03-23T04:12:14;99918.22;;;5.74;100.00
77325;BME280;66387;53.440;10.390;2024-03-23T04:14:39;99913.09;;;5.65;100.00
77325;BME280;66387;53.440;10.390;2024-03-23T04:17:05;99915.69;;;5.68;100.00
77325;BME280;66387;53.440;10.390;2024-03-23T04:19:30;99919.06;;;5.73;100.00
77325;BME280;66387;53.440;10.390;2024-03-23T04:21:55;99920.81;;;5.71;100.00
77325;BME280;66387;53.440;10.390;2024-03-23T04:24:20;99912.22;;;5.75;100.00
77325;BME280;66387;53.440;10.390;2024-03-23T04:26:47;99919.06;;;5.73;100.00
77325;BME280;66387;53.440;10.390;2024-03-23T04:29:12;99902.75;;;5.72;100.00
77325;BME280;66387;53.440;10.390;2024-03-23T04:31:38;99895.94;;;5.71;100.00
77325;BME280;66387;53.440;10.390;2024-03-23T04:34:03;99901.94;;;5.72;100.00
77325;BME280;66387;53.440;10.390;2024-03-23T04:36:29;99899.38;;;5.66;100.00
77325;BME280;66387;53.440;10.390;2024-03-23T04:38:54;99895.09;;;5.68;100.00
77325;BME280;66387;53.440;10.390;2024-03-23T04:41:19;99886.47;;;5.69;100.00
77325;BME280;66387;53.440;10.390;2024-03-23T04:43:45;99893.38;;;5.67;100.00
77325;BME280;66387;53.440;10.390;2024-03-23T04:46:10;99896.78;;;5.66;100.00
77325;BME280;66387;53.440;10.390;2024-03-23T04:48:35;99897.66;;;5.68;100.00
77325;BME280;66387;53.440;10.390;2024-03-23T04:51:01;99893.31;;;5.76;100.00
77325;BME280;66387;53.440;10.390;2024-03-23T04:53:26;99894.16;;;5.78;100.00
77325;BME280;66387;53.440;10.390;2024-03-23T04:55:57;99902.78;;;5.69;100.00
77325;BME280;66387;53.440;10.390;2024-03-23T04:58:24;99905.38;;;5.71;100.00
77325;BME280;66387;53.440;10.390;2024-03-23T05:00:54;99911.34;;;5.73;100.00
77325;BME280;66387;53.440;10.390;2024-03-23T05:03:19;99901.91;;;5.73;100.00
77325;BME280;66387;53.440;10.390;2024-03-23T05:05:46;99891.59;;;5.73;100.00
77325;BME280;66387;53.440;10.390;2024-03-23T05:08:11;99889.88;;;5.72;100.00
77325;BME280;66387;53.440;10.390;2024-03-23T05:10:37;99891.63;;;5.69;100.00
77325;BME280;66387;53.440;10.390;2024-03-23T05:13:03;99894.19;;;5.69;100.00
77325;BME280;66387;53.440;10.390;2024-03-23T05:15:28;99894.19;;;5.69;100.00
77325;BME280;66387;53.440;10.390;2024-03-23T05:17:55;99885.63;;;5.67;100.00
77325;BME280;66387;53.440;10.390;2024-03-23T05:20:20;99904.53;;;5.63;100.00
77325;BME280;66387;53.440;10.390;2024-03-23T05:22:45;99903.69;;;5.64;100.00
77325;BME280;66387;53.440;10.390;2024-03-23T05:25:11;99895.94;;;5.65;100.00
77325;BME280;66387;53.440;10.390;2024-03-23T05:27:37;99888.22;;;5.67;100.00
77325;BME280;66387;53.440;10.390;2024-03-23T05:30:02;99892.53;;;5.62;100.00
77325;BME280;66387;53.440;10.390;2024-03-23T05:32:29;99892.53;;;5.60;100.00
77325;BME280;66387;53.440;10.390;2024-03-23T05:34:54;99889.06;;;5.66;100.00
77325;BME280;66387;53.440;10.390;2024-03-23T05:37:22;99895.09;;;5.62;100.00
77325;BME280;66387;53.440;10.390;2024-03-23T05:39:48;99877.13;;;5.57;100.00
77325;BME280;66387;53.440;10.390;2024-03-23T05:42:15;99879.63;;;5.68;100.00
77325;BME280;66387;53.440;10.390;2024-03-23T05:44:45;99890.78;;;5.70;100.00
77325;BME280;66387;53.440;10.390;2024-03-23T05:47:11;99892.50;;;5.66;100.00
77325;BME280;66387;53.440;10.390;2024-03-23T05:49:38;99879.63;;;5.66;100.00
77325;BME280;66387;53.440;10.390;2024-03-23T05:52:03;99873.69;;;5.55;100.00
77325;BME280;66387;53.440;10.390;2024-03-23T05:54:29;99863.41;;;5.52;100.00
77325;BME280;66387;53.440;10.390;2024-03-23T05:56:55;99859.94;;;5.59;100.00
77325;BME280;66387;53.440;10.390;2024-03-23T05:59:20;99847.06;;;5.58;100.00
77325;BME280;66387;53.440;10.390;2024-03-23T06:01:46;99855.63;;;5.60;100.00
77325;BME280;66387;53.440;10.390;2024-03-23T06:04:12;99850.47;;;5.63;100.00
77325;BME280;66387;53.440;10.390;2024-03-23T06:06:38;99853.91;;;5.62;100.00
77325;BME280;66387;53.440;10.390;2024-03-23T06:09:03;99857.38;;;5.55;100.00
77325;BME280;66387;53.440;10.390;2024-03-23T06:11:28;99853.94;;;5.56;100.00
77325;BME280;66387;53.440;10.390;2024-03-23T06:13:54;99854.78;;;5.58;100.00
77325;BME280;66387;53.440;10.390;2024-03-23T06:16:19;99850.50;;;5.57;100.00
77325;BME280;66387;53.440;10.390;2024-03-23T06:18:48;99858.22;;;5.60;100.00
77325;BME280;66387;53.440;10.390;2024-03-23T06:21:14;99859.06;;;5.59;100.00
77325;BME280;66387;53.440;10.390;2024-03-23T06:23:40;99855.63;;;5.63;100.00
77325;BME280;66387;53.440;10.390;2024-03-23T06:26:06;99845.31;;;5.66;100.00
77325;BME280;66387;53.440;10.390;2024-03-23T06:28:31;99849.63;;;5.64;100.00
77325;BME280;66387;53.440;10.390;2024-03-23T06:30:56;99840.16;;;5.66;100.00
77325;BME280;66387;53.440;10.390;2024-03-23T06:33:21;99835.06;;;5.57;100.00
77325;BME280;66387;53.440;10.390;2024-03-23T06:35:51;99843.56;;;5.65;100.00
77325;BME280;66387;53.440;10.390;2024-03-23T06:38:17;99851.28;;;5.69;100.00
77325;BME280;66387;53.440;10.390;2024-03-23T06:40:42;99849.59;;;5.67;100.00
77325;BME280;66387;53.440;10.390;2024-03-23T06:43:07;99848.75;;;5.68;100.00
77325;BME280;66387;53.440;10.390;2024-03-23T06:45:33;99852.16;;;5.67;100.00
77325;BME280;66387;53.440;10.390;2024-03-23T06:47:58;99846.13;;;5.69;100.00
77325;BME280;66387;53.440;10.390;2024-03-23T06:50:23;99847.03;;;5.67;100.00
77325;BME280;66387;53.440;10.390;2024-03-23T06:52:49;99841.00;;;5.68;100.00
77325;BME280;66387;53.440;10.390;2024-03-23T06:55:14;99843.53;;;5.74;100.00
77325;BME280;66387;53.440;10.390;2024-03-23T06:57:40;99846.94;;;5.76;100.00
77325;BME280;66387;53.440;10.390;2024-03-23T07:00:05;99852.09;;;5.82;100.00
77325;BME280;66387;53.440;10.390;2024-03-23T07:02:35;99852.94;;;5.88;100.00
77325;BME280;66387;53.440;10.390;2024-03-23T07:05:00;99856.34;;;5.90;100.00
77325;BME280;66387;53.440;10.390;2024-03-23T07:07:25;99853.75;;;5.92;100.00
77325;BME280;66387;53.440;10.390;2024-03-23T07:09:52;99852.00;;;6.00;100.00
77325;BME280;66387;53.440;10.390;2024-03-23T07:12:17;99840.84;;;5.97;100.00
77325;BME280;66387;53.440;10.390;2024-03-23T07:14:43;99842.56;;;5.95;100.00
77325;BME280;66387;53.440;10.390;2024-03-23T07:17:08;99833.13;;;5.95;100.00
77325;BME280;66387;53.440;10.390;2024-03-23T07:19:33;99833.97;;;5.99;100.00
77325;BME280;66387;53.440;10.390;2024-03-23T07:21:58;99840.81;;;6.03;100.00
77325;BME280;66387;53.440;10.390;2024-03-23T07:24:23;99842.53;;;6.04;100.00
77325;BME280;66387;53.440;10.390;2024-03-23T07:26:49;99842.44;;;6.13;100.00
77325;BME280;66387;53.440;10.390;2024-03-23T07:29:16;99836.47;;;6.09;100.00
77325;BME280;66387;53.440;10.390;2024-03-23T07:31:41;99841.59;;;6.12;100.00
77325;BME280;66387;53.440;10.390;2024-03-23T07:34:06;99840.63;;;6.24;100.00
77325;BME280;66387;53.440;10.390;2024-03-23T07:36:32;99830.31;;;6.30;100.00
77325;BME280;66387;53.440;10.390;2024-03-23T07:38:57;99823.38;;;6.35;100.00
77325;BME280;66387;53.440;10.390;2024-03-23T07:41:22;99829.34;;;6.38;100.00
77325;BME280;66387;53.440;10.390;2024-03-23T07:43:48;99814.75;;;6.39;100.00
77325;BME280;66387;53.440;10.390;2024-03-23T07:46:15;99815.56;;;6.43;100.00
77325;BME280;66387;53.440;10.390;2024-03-23T07:48:40;99821.56;;;6.43;100.00
77325;BME280;66387;53.440;10.390;2024-03-23T07:51:14;99822.47;;;6.40;100.00
77325;BME280;66387;53.440;10.390;2024-03-23T07:53:39;99826.81;;;6.37;100.00
77325;BME280;66387;53.440;10.390;2024-03-23T07:56:08;99825.03;;;6.42;100.00
77325;BME280;66387;53.440;10.390;2024-03-23T07:58:35;99820.63;;;6.55;100.00
77325;BME280;66387;53.440;10.390;2024-03-23T08:01:05;99822.34;;;6.56;100.00
77325;BME280;66387;53.440;10.390;2024-03-23T08:03:33;99811.16;;;6.52;100.00
77325;BME280;66387;53.440;10.390;2024-03-23T08:06:06;99819.81;;;6.48;100.00
77325;BME280;66387;53.440;10.390;2024-03-23T08:08:31;99816.28;;;6.57;100.00
77325;BME280;66387;53.440;10.390;2024-03-23T08:10:57;99814.47;;;6.69;100.00
77325;BME280;66387;53.440;10.390;2024-03-23T08:13:22;99805.75;;;6.78;100.00
77325;BME280;66387;53.440;10.390;2024-03-23T08:15:47;99802.22;;;6.86;100.00
77325;BME280;66387;53.440;10.390;2024-03-23T08:18:13;99800.38;;;6.99;100.00
77325;BME280;66387;53.440;10.390;2024-03-23T08:20:40;99805.31;;;7.17;100.00
77325;BME280;66387;53.440;10.390;2024-03-23T08:23:06;99809.34;;;7.36;100.00
77325;BME280;66387;53.440;10.390;2024-03-23T08:25:32;99808.38;;;7.44;100.00
77325;BME280;66387;53.440;10.390;2024-03-23T08:27:57;99802.31;;;7.48;100.00
77325;BME280;66387;53.440;10.390;2024-03-23T08:30:23;99803.00;;;7.60;100.00
77325;BME280;66387;53.440;10.390;2024-03-23T08:32:48;99809.84;;;7.64;100.00
77325;BME280;66387;53.440;10.390;2024-03-23T08:35:13;99799.25;;;7.82;100.00
77325;BME280;66387;53.440;10.390;2024-03-23T08:37:39;99801.59;;;7.98;100.00
77325;BME280;66387;53.440;10.390;2024-03-23T08:40:04;99799.81;;;8.01;100.00
77325;BME280;66387;53.440;10.390;2024-03-23T08:42:30;99789.25;;;8.13;100.00
77325;BME280;66387;53.440;10.390;2024-03-23T08:44:55;99785.81;;;8.14;100.00
77325;BME280;66387;53.440;10.390;2024-03-23T08:47:21;99791.50;;;8.36;100.00
77325;BME280;66387;53.440;10.390;2024-03-23T08:49:46;99780.22;;;8.40;100.00
77325;BME280;66387;53.440;10.390;2024-03-23T08:52:11;99782.50;;;8.57;100.00
77325;BME280;66387;53.440;10.390;2024-03-23T08:54:36;99777.06;;;8.72;100.00
77325;BME280;66387;53.440;10.390;2024-03-23T08:57:02;99780.03;;;8.52;100.00
77325;BME280;66387;53.440;10.390;2024-03-23T08:59:27;99770.56;;;8.50;100.00
77325;BME280;66387;53.440;10.390;2024-03-23T09:01:53;99774.13;;;8.44;100.00
77325;BME280;66387;53.440;10.390;2024-03-23T09:04:18;99778.69;;;8.30;100.00
77325;BME280;66387;53.440;10.390;2024-03-23T09:06:43;99774.19;;;8.40;100.00
77325;BME280;66387;53.440;10.390;2024-03-23T09:09:09;99775.53;;;8.60;100.00
77325;BME280;66387;53.440;10.390;2024-03-23T09:11:34;99768.69;;;8.59;100.00
77325;BME280;66387;53.440;10.390;2024-03-23T09:13:59;99769.41;;;8.66;100.00
77325;BME280;66387;53.440;10.390;2024-03-23T09:16:25;99765.81;;;8.73;100.00
77325;BME280;66387;53.440;10.390;2024-03-23T09:18:51;99764.19;;;8.69;100.00
77325;BME280;66387;53.440;10.390;2024-03-23T09:21:16;99765.81;;;8.73;100.00
77325;BME280;66387;53.440;10.390;2024-03-23T09:23:45;99772.22;;;8.54;100.00
77325;BME280;66387;53.440;10.390;2024-03-23T09:26:10;99774.19;;;8.41;100.00
77325;BME280;66387;53.440;10.390;2024-03-23T09:28:36;99785.28;;;8.46;100.00
77325;BME280;66387;53.440;10.390;2024-03-23T09:31:05;99782.13;;;8.27;100.00
77325;BME280;66387;53.440;10.390;2024-03-23T09:33:31;99764.47;;;8.02;100.00
77325;BME280;66387;53.440;10.390;2024-03-23T09:35:56;99788.50;;;8.08;100.00
77325;BME280;66387;53.440;10.390;2024-03-23T09:38:22;99775.84;;;8.45;100.00
77325;BME280;66387;53.440;10.390;2024-03-23T09:40:52;99758.72;;;8.84;100.00
77325;BME280;66387;53.440;10.390;2024-03-23T09:43:18;99765.16;;;9.06;100.00
77325;BME280;66387;53.440;10.390;2024-03-23T09:45:44;99768.06;;;9.32;96.28
77325;BME280;66387;53.440;10.390;2024-03-23T09:48:10;99752.94;;;9.51;95.20
77325;BME280;66387;53.440;10.390;2024-03-23T09:53:05;99756.03;;;9.67;90.43
77325;BME280;66387;53.440;10.390;2024-03-23T09:55:31;99745.84;;;9.96;87.63
77325;BME280;66387;53.440;10.390;2024-03-23T09:57:56;99750.75;;;10.08;86.73
77325;BME280;66387;53.440;10.390;2024-03-23T10:00:22;99740.63;;;9.98;82.97
77325;BME280;66387;53.440;10.390;2024-03-23T10:02:47;99735.03;;;10.13;84.15
77325;BME280;66387;53.440;10.390;2024-03-23T10:05:22;99728.91;;;10.17;80.51
77325;BME280;66387;53.440;10.390;2024-03-23T10:07:50;99730.84;;;10.09;81.21
77325;BME280;66387;53.440;10.390;2024-03-23T10:10:16;99715.59;;;9.95;75.03
77325;BME280;66387;53.440;10.390;2024-03-23T10:12:46;99706.59;;;10.10;75.14
77325;BME280;66387;53.440;10.390;2024-03-23T10:15:18;99712.06;;;10.35;74.78
77325;BME280;66387;53.440;10.390;2024-03-23T10:17:44;99711.06;;;10.71;74.04
77325;BME280;66387;53.440;10.390;2024-03-23T10:20:10;99723.31;;;11.24;75.19
77325;BME280;66387;53.440;10.390;2024-03-23T10:22:39;99721.19;;;11.09;65.28
77325;BME280;66387;53.440;10.390;2024-03-23T10:25:11;99724.41;;;10.88;65.24
77325;BME280;66387;53.440;10.390;2024-03-23T10:27:37;99722.06;;;11.08;65.88
77325;BME280;66387;53.440;10.390;2024-03-23T10:30:13;99727.53;;;10.99;63.32
77325;BME280;66387;53.440;10.390;2024-03-23T10:32:40;99719.16;;;11.19;61.06
77325;BME280;66387;53.440;10.390;2024-03-23T10:35:18;99712.69;;;11.32;61.17
77325;BME280;66387;53.440;10.390;2024-03-23T10:37:44;99704.88;;;11.60;61.93
77325;BME280;66387;53.440;10.390;2024-03-23T10:40:11;99703.72;;;11.14;59.75
77325;BME280;66387;53.440;10.390;2024-03-23T10:42:37;99697.16;;;11.01;63.49
77325;BME280;66387;53.440;10.390;2024-03-23T10:45:07;99702.53;;;10.66;63.79
77325;BME280;66387;53.440;10.390;2024-03-23T10:47:34;99702.28;;;10.44;63.57
77325;BME280;66387;53.440;10.390;2024-03-23T10:49:59;99702.19;;;10.78;63.61
77325;BME280;66387;53.440;10.390;2024-03-23T10:52:25;99694.13;;;11.16;61.17
77325;BME280;66387;53.440;10.390;2024-03-23T10:54:51;99693.84;;;11.53;60.21
77325;BME280;66387;53.440;10.390;2024-03-23T10:57:20;99690.38;;;11.53;58.35
77325;BME280;66387;53.440;10.390;2024-03-23T10:59:46;99687.00;;;11.51;57.89
77325;BME280;66387;53.440;10.390;2024-03-23T11:02:21;99686.19;;;11.76;59.01
77325;BME280;66387;53.440;10.390;2024-03-23T11:04:47;99679.84;;;12.10;57.68
77325;BME280;66387;53.440;10.390;2024-03-23T11:09:52;99674.88;;;12.28;55.83
77325;BME280;66387;53.440;10.390;2024-03-23T11:15:01;99674.72;;;12.08;53.93
77325;BME280;66387;53.440;10.390;2024-03-23T11:17:28;99667.81;;;12.07;54.74
77325;BME280;66387;53.440;10.390;2024-03-23T11:19:54;99662.13;;;12.21;52.57
77325;BME280;66387;53.440;10.390;2024-03-23T11:22:46;99658.28;;;11.82;53.87
77325;BME280;66387;53.440;10.390;2024-03-23T11:25:18;99662.50;;;11.58;54.94
77325;BME280;66387;53.440;10.390;2024-03-23T11:27:50;99666.31;;;11.20;55.56
77325;BME280;66387;53.440;10.390;2024-03-23T11:32:44;99667.81;;;10.70;58.28
77325;BME280;66387;53.440;10.390;2024-03-23T11:35:09;99681.75;;;10.35;59.28
77325;BME280;66387;53.440;10.390;2024-03-23T11:37:36;99689.69;;;9.95;66.53
77325;BME280;66387;53.440;10.390;2024-03-23T11:40:16;99712.91;;;9.27;77.22
77325;BME280;66387;53.440;10.390;2024-03-23T11:42:41;99723.63;;;8.69;88.33
77325;BME280;66387;53.440;10.390;2024-03-23T11:45:08;99702.50;;;8.48;96.51
77325;BME280;66387;53.440;10.390;2024-03-23T11:47:33;99681.41;;;8.21;100.00
77325;BME280;66387;53.440;10.390;2024-03-23T11:49:59;99677.47;;;8.91;100.00
77325;BME280;66387;53.440;10.390;2024-03-23T11:52:24;99682.88;;;9.57;100.00
77325;BME280;66387;53.440;10.390;2024-03-23T11:54:49;99676.13;;;10.19;100.00
77325;BME280;66387;53.440;10.390;2024-03-23T11:57:14;99664.75;;;10.56;100.00
77325;BME280;66387;53.440;10.390;2024-03-23T11:59:40;99669.13;;;10.54;95.63
77325;BME280;66387;53.440;10.390;2024-03-23T12:02:09;99677.34;;;10.05;98.26
77325;BME280;66387;53.440;10.390;2024-03-23T12:04:41;99667.75;;;9.74;100.00
77325;BME280;66387;53.440;10.390;2024-03-23T12:07:19;99664.31;;;9.74;99.51
77325;BME280;66387;53.440;10.390;2024-03-23T12:09:46;99667.75;;;9.74;100.00
77325;BME280;66387;53.440;10.390;2024-03-23T12:12:16;99656.19;;;9.54;97.95
77325;BME280;66387;53.440;10.390;2024-03-23T12:14:46;99658.84;;;9.51;100.00
77325;BME280;66387;53.440;10.390;2024-03-23T12:17:25;99663.38;;;9.41;97.78
77325;BME280;66387;53.440;10.390;2024-03-23T12:19:51;99673.13;;;9.30;96.44
77325;BME280;66387;53.440;10.390;2024-03-23T12:22:20;99669.47;;;9.02;97.55
77325;BME280;66387;53.440;10.390;2024-03-23T12:24:45;99670.59;;;8.90;91.40
77325;BME280;66387;53.440;10.390;2024-03-23T12:27:10;99667.59;;;8.68;87.83
77325;BME280;66387;53.440;10.390;2024-03-23T12:29:36;99669.38;;;8.65;91.31
77325;BME280;66387;53.440;10.390;2024-03-23T12:32:02;99673.97;;;8.52;87.76
77325;BME280;66387;53.440;10.390;2024-03-23T12:34:28;99665.25;;;8.56;86.36
77325;BME280;66387;53.440;10.390;2024-03-23T12:36:54;99663.38;;;9.04;91.03
77325;BME280;66387;53.440;10.390;2024-03-23T12:39:19;99650.78;;;9.97;84.77
77325;BME280;66387;53.440;10.390;2024-03-23T12:41:46;99662.19;;;10.23;81.30
77325;BME280;66387;53.440;10.390;2024-03-23T12:44:12;99653.38;;;9.95;82.47
77325;BME280;66387;53.440;10.390;2024-03-23T12:46:40;99658.81;;;9.52;80.18
77325;BME280;66387;53.440;10.390;2024-03-23T12:49:05;99661.31;;;9.18;81.41
77325;BME280;66387;53.440;10.390;2024-03-23T12:51:31;99659.34;;;8.91;84.17
77325;BME280;66387;53.440;10.390;2024-03-23T12:53:56;99676.06;;;8.75;87.12
77325;BME280;66387;53.440;10.390;2024-03-23T12:56:22;99668.38;;;8.72;86.89
77325;BME280;66387;53.440;10.390;2024-03-23T12:58:47;99674.50;;;8.68;87.00
77325;BME280;66387;53.440;10.390;2024-03-23T13:01:20;99665.59;;;8.38;89.17
77325;BME280;66387;53.440;10.390;2024-03-23T13:03:49;99675.44;;;8.19;89.49
77325;BME280;66387;53.440;10.390;2024-03-23T13:06:15;99677.03;;;8.26;91.30
77325;BME280;66387;53.440;10.390;2024-03-23T13:08:40;99680.31;;;8.34;90.09
77325;BME280;66387;53.440;10.390;2024-03-23T13:11:07;99683.69;;;8.41;89.56
77325;BME280;66387;53.440;10.390;2024-03-23T13:13:34;99703.88;;;8.19;88.40
77325;BME280;66387;53.440;10.390;2024-03-23T13:15:59;99697.81;;;7.71;89.27
77325;BME280;66387;53.440;10.390;2024-03-23T13:18:24;99700.78;;;7.46;91.35
77325;BME280;66387;53.440;10.390;2024-03-23T13:20:50;99719.13;;;7.27;89.48
77325;BME280;66387;53.440;10.390;2024-03-23T13:23:15;99722.84;;;7.07;90.40
77325;BME280;66387;53.440;10.390;2024-03-23T13:25:40;99740.25;;;6.91;92.97
77325;BME280;66387;53.440;10.390;2024-03-23T13:28:06;99745.63;;;6.73;95.33
77325;BME280;66387;53.440;10.390;2024-03-23T13:30:31;99760.72;;;6.30;100.00
77325;BME280;66387;53.440;10.390;2024-03-23T13:32:56;99784.38;;;5.68;100.00
77325;BME280;66387;53.440;10.390;2024-03-23T13:35:21;99759.53;;;5.61;100.00
77325;BME280;66387;53.440;10.390;2024-03-23T13:37:47;99763.78;;;6.64;100.00
77325;BME280;66387;53.440;10.390;2024-03-23T13:40:13;99747.22;;;7.49;100.00
77325;BME280;66387;53.440;10.390;2024-03-23T13:42:39;99748.06;;;8.04;100.00
77325;BME280;66387;53.440;10.390;2024-03-23T13:45:04;99750.81;;;8.46;100.00
77325;BME280;66387;53.440;10.390;2024-03-23T13:47:29;99748.81;;;8.60;100.00
77325;BME280;66387;53.440;10.390;2024-03-23T13:49:55;99765.50;;;7.92;100.00